createdAt,value
2023-03-24T00:00:04.874Z,12.69
2023-03-24T00:01:04.821Z,12.63
2023-03-24T00:02:04.862Z,12.66
2023-03-24T00:03:04.805Z,12.59
2023-03-24T00:04:04.763Z,12.55
2023-03-24T00:05:04.662Z,12.54
2023-03-24T00:06:04.674Z,12.62
2023-03-24T00:07:04.607Z,12.62
2023-03-24T00:08:04.736Z,12.61
2023-03-24T00:09:04.516Z,12.59
2023-03-24T00:10:04.473Z,12.73
2023-03-24T00:11:04.433Z,12.51
2023-03-24T00:12:04.397Z,12.54
2023-03-24T00:13:04.369Z,12.49
2023-03-24T00:14:04.308Z,12.63
2023-03-24T00:15:04.283Z,12.62
2023-03-24T00:16:04.302Z,12.67
2023-03-24T00:17:04.197Z,12.66
2023-03-24T00:18:04.174Z,12.69
2023-03-24T00:19:04.114Z,12.61
2023-03-24T00:20:04.063Z,12.71
2023-03-24T00:21:04.027Z,12.62
2023-03-24T00:22:03.998Z,12.61
2023-03-24T00:23:03.942Z,12.54
2023-03-24T00:24:03.925Z,12.58
2023-03-24T00:25:03.862Z,12.62
2023-03-24T00:26:03.826Z,12.62
2023-03-24T00:27:03.795Z,12.58
2023-03-24T00:28:03.760Z,12.62
2023-03-24T00:29:03.702Z,12.71
2023-03-24T00:30:03.696Z,12.63
2023-03-24T00:31:03.691Z,12.62
2023-03-24T00:32:03.587Z,12.70
2023-03-24T00:33:03.553Z,12.73
2023-03-24T00:34:03.518Z,12.81
2023-03-24T00:35:03.468Z,12.73
2023-03-24T00:36:03.451Z,12.74
2023-03-24T00:37:03.400Z,12.85
2023-03-24T00:38:03.345Z,12.85
2023-03-24T00:39:03.339Z,12.87
2023-03-24T00:40:03.270Z,12.87
2023-03-24T00:41:03.238Z,12.88
2023-03-24T00:42:03.183Z,12.85
2023-03-24T00:43:03.160Z,12.77
2023-03-24T00:44:03.098Z,12.77
2023-03-24T00:45:03.074Z,12.79
2023-03-24T00:46:03.021Z,12.79
2023-03-24T00:47:03.088Z,12.87
2023-03-24T00:48:02.974Z,12.84
2023-03-24T00:49:03.067Z,12.84
2023-03-24T00:50:02.873Z,12.96
2023-03-24T00:51:02.837Z,12.91
2023-03-24T00:52:02.814Z,12.95
2023-03-24T00:53:02.761Z,12.95
2023-03-24T00:54:02.692Z,12.91
2023-03-24T00:55:02.692Z,13.01
2023-03-24T00:56:02.620Z,12.98
2023-03-24T00:57:02.665Z,12.95
2023-03-24T00:58:02.536Z,12.91
2023-03-24T00:59:02.633Z,12.92
2023-03-24T01:00:02.477Z,12.87
2023-03-24T01:01:02.460Z,12.92
2023-03-24T01:02:02.399Z,12.89
2023-03-24T01:03:02.394Z,12.94
2023-03-24T01:04:02.314Z,12.87
2023-03-24T01:05:02.366Z,12.95
2023-03-24T01:06:03.133Z,12.84
2023-03-24T01:07:02.171Z,12.88
2023-03-24T01:08:02.132Z,12.84
2023-03-24T01:09:02.111Z,12.80
2023-03-24T01:10:02.096Z,12.84
2023-03-24T01:11:02.025Z,12.84
2023-03-24T01:12:01.986Z,12.79
2023-03-24T01:13:01.934Z,12.84
2023-03-24T01:14:01.889Z,12.88
2023-03-24T01:15:01.845Z,12.85
2023-03-24T01:16:01.848Z,12.74
2023-03-24T01:17:01.770Z,12.84
2023-03-24T01:18:01.799Z,12.76
2023-03-24T01:19:01.692Z,12.69
2023-03-24T01:20:01.681Z,12.73
2023-03-24T01:21:01.638Z,12.61
2023-03-24T01:22:01.589Z,12.62
2023-03-24T01:23:01.552Z,12.71
2023-03-24T01:24:01.514Z,12.61
2023-03-24T01:25:01.516Z,12.63
2023-03-24T01:26:01.420Z,12.58
2023-03-24T01:27:01.381Z,12.61
2023-03-24T01:28:01.338Z,12.67
2023-03-24T01:29:01.327Z,12.66
2023-03-24T01:30:01.274Z,12.62
2023-03-24T01:31:01.206Z,12.71
2023-03-24T01:32:01.323Z,12.63
2023-03-24T01:33:01.153Z,12.63
2023-03-24T01:34:01.084Z,12.70
2023-03-24T01:35:01.073Z,12.77
2023-03-24T01:36:01.071Z,12.70
2023-03-24T01:37:00.985Z,12.73
2023-03-24T01:38:00.964Z,12.74
2023-03-24T01:39:00.891Z,12.84
2023-03-24T01:40:00.844Z,12.87
2023-03-24T01:41:00.813Z,12.81
2023-03-24T01:42:00.780Z,12.80
2023-03-24T01:43:00.732Z,12.79
2023-03-24T01:44:00.728Z,12.87
2023-03-24T01:45:00.642Z,12.79
2023-03-24T01:46:00.698Z,12.74
2023-03-24T01:47:00.605Z,12.84
2023-03-24T01:48:00.592Z,12.91
2023-03-24T01:49:00.520Z,12.81
2023-03-24T01:50:00.466Z,12.81
2023-03-24T01:51:00.439Z,12.96
2023-03-24T01:52:00.402Z,12.94
2023-03-24T01:53:00.328Z,12.87
2023-03-24T01:54:00.313Z,12.96
2023-03-24T01:55:00.252Z,12.96
2023-03-24T01:56:00.215Z,12.88
2023-03-24T01:57:00.227Z,12.87
2023-03-24T01:58:00.127Z,12.88
2023-03-24T01:59:00.115Z,13.01
2023-03-24T02:00:00.087Z,12.99
2023-03-24T02:01:00.030Z,12.94
2023-03-24T02:01:59.984Z,12.89
2023-03-24T02:02:59.970Z,12.88
2023-03-24T02:03:59.926Z,12.81
2023-03-24T02:04:59.880Z,12.81
2023-03-24T02:05:59.809Z,12.85
2023-03-24T02:06:59.769Z,12.80
2023-03-24T02:07:59.727Z,12.88
2023-03-24T02:08:59.681Z,12.81
2023-03-24T02:09:59.669Z,12.89
2023-03-24T02:10:59.624Z,12.89
2023-03-24T02:11:59.580Z,12.81
2023-03-24T02:12:59.544Z,12.95
2023-03-24T02:13:59.500Z,12.88
2023-03-24T02:14:59.444Z,12.88
2023-03-24T02:15:59.444Z,12.85
2023-03-24T02:16:59.365Z,12.91
2023-03-24T02:17:59.356Z,12.84
2023-03-24T02:18:59.303Z,12.80
2023-03-24T02:19:59.257Z,12.84
2023-03-24T02:20:59.219Z,12.89
2023-03-24T02:21:59.187Z,12.94
2023-03-24T02:22:59.113Z,12.87
2023-03-24T02:23:59.082Z,12.76
2023-03-24T02:24:59.064Z,12.85
2023-03-24T02:25:59.013Z,12.85
2023-03-24T02:26:58.963Z,12.84
2023-03-24T02:27:58.952Z,12.89
2023-03-24T02:28:58.892Z,13.04
2023-03-24T02:29:58.861Z,12.99
2023-03-24T02:30:58.804Z,12.95
2023-03-24T02:31:58.847Z,13.03
2023-03-24T02:32:58.742Z,13.01
2023-03-24T02:33:58.691Z,13.03
2023-03-24T02:34:58.651Z,13.09
2023-03-24T02:35:58.663Z,13.17
2023-03-24T02:36:58.564Z,13.13
2023-03-24T02:37:58.532Z,13.09
2023-03-24T02:38:58.496Z,13.14
2023-03-24T02:39:58.455Z,13.19
2023-03-24T02:40:58.408Z,13.14
2023-03-24T02:41:58.390Z,13.19
2023-03-24T02:42:58.317Z,13.14
2023-03-24T02:43:58.285Z,13.17
2023-03-24T02:44:58.279Z,13.17
2023-03-24T02:45:58.229Z,13.19
2023-03-24T02:46:58.157Z,13.27
2023-03-24T02:47:58.184Z,13.35
2023-03-24T02:48:58.067Z,13.24
2023-03-24T02:49:58.030Z,13.35
2023-03-24T02:50:58.041Z,13.31
2023-03-24T02:51:57.986Z,13.36
2023-03-24T02:52:57.917Z,13.38
2023-03-24T02:53:57.878Z,13.41
2023-03-24T02:54:57.844Z,13.29
2023-03-24T02:55:57.810Z,13.41
2023-03-24T02:56:57.791Z,13.38
2023-03-24T02:57:57.720Z,13.32
2023-03-24T02:58:57.674Z,13.35
2023-03-24T02:59:57.642Z,13.39
2023-03-24T03:00:57.584Z,13.39
2023-03-24T03:01:57.564Z,13.44
2023-03-24T03:02:57.571Z,13.43
2023-03-24T03:03:57.487Z,13.46
2023-03-24T03:04:57.439Z,13.47
2023-03-24T03:05:57.407Z,13.51
2023-03-24T03:06:57.346Z,13.50
2023-03-24T03:07:57.318Z,13.51
2023-03-24T03:08:57.286Z,13.55
2023-03-24T03:09:57.235Z,13.54
2023-03-24T03:10:57.232Z,13.55
2023-03-24T03:11:57.156Z,13.55
2023-03-24T03:12:57.116Z,13.59
2023-03-24T03:13:57.087Z,13.59
2023-03-24T03:14:57.054Z,13.61
2023-03-24T03:15:57.045Z,13.53
2023-03-24T03:16:56.962Z,13.54
2023-03-24T03:17:56.985Z,13.63
2023-03-24T03:18:56.887Z,13.68
2023-03-24T03:19:56.861Z,13.72
2023-03-24T03:20:56.797Z,13.73
2023-03-24T03:21:56.755Z,13.76
2023-03-24T03:22:56.715Z,13.68
2023-03-24T03:23:56.694Z,13.86
2023-03-24T03:24:56.637Z,13.79
2023-03-24T03:25:56.603Z,13.83
2023-03-24T03:26:56.567Z,14.02
2023-03-24T03:27:56.540Z,13.90
2023-03-24T03:28:56.492Z,13.99
2023-03-24T03:29:56.444Z,14.08
2023-03-24T03:30:56.442Z,14.04
2023-03-24T03:31:56.372Z,14.01
2023-03-24T03:32:56.371Z,14.12
2023-03-24T03:33:56.285Z,14.12
2023-03-24T03:34:56.278Z,14.19
2023-03-24T03:35:56.232Z,14.19
2023-03-24T03:36:56.166Z,14.34
2023-03-24T03:37:56.136Z,14.30
2023-03-24T03:38:56.101Z,14.41
2023-03-24T03:39:56.063Z,14.34
2023-03-24T03:40:56.063Z,14.38
2023-03-24T03:41:55.991Z,14.35
2023-03-24T03:42:55.928Z,14.42
2023-03-24T03:43:55.889Z,14.48
2023-03-24T03:44:55.872Z,14.39
2023-03-24T03:45:55.855Z,14.48
2023-03-24T03:46:55.779Z,14.36
2023-03-24T03:47:55.796Z,14.48
2023-03-24T03:48:55.691Z,14.44
2023-03-24T03:49:55.670Z,14.44
2023-03-24T03:51:10.327Z,14.53
2023-03-24T03:51:55.592Z,14.49
2023-03-24T03:52:55.566Z,14.56
2023-03-24T03:53:55.498Z,14.45
2023-03-24T03:54:55.457Z,14.60
2023-03-24T03:55:55.427Z,14.54
2023-03-24T03:56:55.397Z,14.57
2023-03-24T03:57:55.373Z,14.64
2023-03-24T03:58:55.330Z,14.69
2023-03-24T03:59:55.288Z,14.63
2023-03-24T04:00:55.220Z,14.57
2023-03-24T04:01:55.212Z,14.66
2023-03-24T04:02:55.203Z,14.56
2023-03-24T04:03:55.222Z,14.69
2023-03-24T04:05:03.658Z,14.63
2023-03-24T04:05:55.050Z,14.60
2023-03-24T04:06:54.998Z,14.59
2023-03-24T04:07:54.965Z,14.67
2023-03-24T04:08:54.901Z,14.61
2023-03-24T04:09:54.898Z,14.63
2023-03-24T04:10:54.827Z,14.59
2023-03-24T04:11:54.796Z,14.57
2023-03-24T04:12:54.742Z,14.61
2023-03-24T04:13:54.756Z,14.45
2023-03-24T04:14:54.712Z,14.54
2023-03-24T04:15:54.727Z,14.52
2023-03-24T04:16:54.607Z,14.46
2023-03-24T04:17:54.578Z,14.45
2023-03-24T04:18:54.532Z,14.48
2023-03-24T04:19:54.469Z,14.30
2023-03-24T04:20:54.437Z,14.39
2023-03-24T04:21:54.402Z,14.39
2023-03-24T04:22:54.358Z,14.35
2023-03-24T04:23:54.348Z,14.36
2023-03-24T04:24:54.296Z,14.42
2023-03-24T04:25:54.244Z,14.21
2023-03-24T04:26:54.226Z,14.34
2023-03-24T04:27:54.182Z,14.21
2023-03-24T04:28:54.136Z,14.12
2023-03-24T04:29:54.079Z,14.11
2023-03-24T04:30:54.043Z,14.05
2023-03-24T04:31:54.004Z,14.01
2023-03-24T04:32:54.129Z,14.01
2023-03-24T04:33:53.943Z,14.04
2023-03-24T04:34:53.898Z,14.02
2023-03-24T04:35:53.873Z,13.98
2023-03-24T04:36:53.817Z,13.91
2023-03-24T04:37:53.787Z,13.88
2023-03-24T04:38:53.746Z,13.93
2023-03-24T04:39:53.714Z,13.96
2023-03-24T04:40:53.669Z,13.84
2023-03-24T04:41:53.613Z,13.83
2023-03-24T04:42:53.594Z,13.71
2023-03-24T04:43:53.541Z,13.66
2023-03-24T04:44:53.504Z,13.71
2023-03-24T04:45:53.533Z,13.71
2023-03-24T04:46:53.449Z,13.76
2023-03-24T04:47:53.405Z,13.68
2023-03-24T04:48:53.356Z,13.63
2023-03-24T04:49:53.325Z,13.63
2023-03-24T04:50:53.280Z,13.75
2023-03-24T04:51:53.227Z,13.65
2023-03-24T04:52:53.170Z,13.66
2023-03-24T04:53:53.151Z,13.61
2023-03-24T04:54:53.117Z,13.59
2023-03-24T04:55:53.103Z,13.62
2023-03-24T04:56:53.087Z,13.62
2023-03-24T04:57:52.988Z,13.62
2023-03-24T04:58:52.944Z,13.63
2023-03-24T04:59:52.890Z,13.55
2023-03-24T05:00:52.870Z,13.65
2023-03-24T05:01:52.866Z,13.62
2023-03-24T05:02:52.825Z,13.62
2023-03-24T05:03:52.768Z,13.53
2023-03-24T05:04:52.720Z,13.61
2023-03-24T05:05:52.661Z,13.59
2023-03-24T05:06:52.615Z,13.51
2023-03-24T05:07:52.608Z,13.51
2023-03-24T05:08:52.548Z,13.51
2023-03-24T05:09:52.504Z,13.50
2023-03-24T05:10:52.456Z,13.46
2023-03-24T05:11:52.431Z,13.44
2023-03-24T05:12:52.392Z,13.51
2023-03-24T05:13:52.363Z,13.46
2023-03-24T05:14:52.296Z,13.47
2023-03-24T05:15:52.259Z,13.46
2023-03-24T05:16:52.322Z,13.47
2023-03-24T05:17:52.207Z,13.43
2023-03-24T05:18:52.163Z,13.39
2023-03-24T05:19:52.128Z,13.47
2023-03-24T05:20:52.092Z,13.38
2023-03-24T05:21:52.021Z,13.38
2023-03-24T05:22:52.044Z,13.31
2023-03-24T05:23:51.944Z,13.19
2023-03-24T05:24:51.922Z,13.32
2023-03-24T05:25:51.879Z,13.21
2023-03-24T05:26:51.840Z,13.22
2023-03-24T05:27:51.783Z,13.13
2023-03-24T05:28:51.743Z,12.99
2023-03-24T05:29:51.712Z,13.07
2023-03-24T05:30:51.722Z,13.01
2023-03-24T05:31:51.642Z,12.91
2023-03-24T05:32:51.630Z,12.98
2023-03-24T05:33:51.549Z,12.89
2023-03-24T05:34:51.515Z,12.84
2023-03-24T05:35:51.543Z,12.79
2023-03-24T05:36:51.437Z,12.80
2023-03-24T05:37:51.405Z,12.74
2023-03-24T05:38:51.360Z,12.62
2023-03-24T05:39:51.320Z,12.63
2023-03-24T05:40:51.320Z,12.59
2023-03-24T05:41:51.240Z,12.55
2023-03-24T05:42:51.203Z,12.52
2023-03-24T05:43:51.144Z,12.46
2023-03-24T05:44:51.117Z,12.46
2023-03-24T05:45:51.097Z,12.43
2023-03-24T05:46:51.032Z,12.44
2023-03-24T05:47:51.067Z,12.40
2023-03-24T05:48:50.942Z,12.31
2023-03-24T05:49:50.908Z,12.26
2023-03-24T05:50:50.892Z,12.22
2023-03-24T05:51:50.869Z,12.23
2023-03-24T05:52:50.832Z,12.18
2023-03-24T05:53:50.754Z,12.16
2023-03-24T05:54:50.762Z,12.16
2023-03-24T05:55:50.689Z,12.15
2023-03-24T05:56:50.647Z,12.25
2023-03-24T05:57:50.590Z,12.25
2023-03-24T05:58:50.576Z,12.26
2023-03-24T05:59:50.577Z,12.30
2023-03-24T06:00:50.477Z,12.18
2023-03-24T06:01:50.417Z,12.21
2023-03-24T06:02:50.552Z,12.21
2023-03-24T06:03:50.456Z,12.12
2023-03-24T06:04:50.374Z,12.18
2023-03-24T06:05:50.274Z,12.11
2023-03-24T06:06:50.246Z,12.19
2023-03-24T06:07:50.188Z,12.11
2023-03-24T06:08:50.146Z,12.11
2023-03-24T06:09:50.111Z,12.05
2023-03-24T06:10:50.101Z,12.05
2023-03-24T06:11:50.021Z,12.04
2023-03-24T06:12:50.002Z,12.03
2023-03-24T06:13:49.954Z,12.07
2023-03-24T06:14:49.912Z,12.05
2023-03-24T06:15:49.934Z,11.97
2023-03-24T06:16:49.844Z,12.11
2023-03-24T06:17:49.829Z,12.08
2023-03-24T06:18:49.750Z,12.08
2023-03-24T06:19:49.954Z,11.97
2023-03-24T06:20:49.674Z,12.04
2023-03-24T06:21:49.640Z,11.88
2023-03-24T06:22:49.614Z,11.90
2023-03-24T06:23:49.585Z,11.90
2023-03-24T06:24:49.530Z,11.97
2023-03-24T06:25:49.465Z,11.97
2023-03-24T06:26:49.443Z,11.84
2023-03-24T06:27:49.371Z,11.81
2023-03-24T06:28:49.373Z,11.93
2023-03-24T06:29:49.324Z,11.72
2023-03-24T06:30:49.301Z,11.74
2023-03-24T06:31:49.206Z,11.84
2023-03-24T06:32:49.234Z,11.75
2023-03-24T06:33:49.147Z,11.67
2023-03-24T06:34:49.144Z,11.69
2023-03-24T06:35:49.077Z,11.85
2023-03-24T06:36:49.019Z,11.74
2023-03-24T06:37:48.977Z,11.70
2023-03-24T06:38:50.456Z,11.74
2023-03-24T06:39:48.895Z,11.77
2023-03-24T06:40:48.886Z,11.75
2023-03-24T06:41:48.806Z,11.74
2023-03-24T06:42:48.793Z,11.72
2023-03-24T06:43:48.735Z,11.78
2023-03-24T06:44:48.699Z,11.78
2023-03-24T06:45:48.949Z,11.84
2023-03-24T06:46:48.686Z,11.82
2023-03-24T06:47:48.619Z,11.85
2023-03-24T06:48:48.543Z,11.90
2023-03-24T06:49:48.519Z,11.90
2023-03-24T06:50:48.474Z,12.00
2023-03-24T06:51:48.433Z,11.79
2023-03-24T06:52:48.421Z,11.88
2023-03-24T06:53:48.366Z,11.74
2023-03-24T06:54:48.324Z,11.69
2023-03-24T06:55:48.262Z,11.85
2023-03-24T06:56:48.264Z,11.96
2023-03-24T06:57:48.195Z,11.84
2023-03-24T06:58:48.161Z,11.87
2023-03-24T06:59:48.109Z,11.90
2023-03-24T07:00:48.165Z,12.07
2023-03-24T07:01:48.077Z,12.18
2023-03-24T07:02:48.081Z,12.18
2023-03-24T07:03:47.993Z,12.11
2023-03-24T07:04:47.914Z,12.07
2023-03-24T07:05:47.882Z,12.04
2023-03-24T07:07:05.093Z,12.16
2023-03-24T07:08:47.748Z,12.12
2023-03-24T07:09:47.706Z,12.01
2023-03-24T07:10:47.761Z,11.98
2023-03-24T07:11:47.651Z,12.00
2023-03-24T07:12:47.599Z,11.87
2023-03-24T07:13:47.528Z,11.82
2023-03-24T07:14:47.490Z,11.84
2023-03-24T07:15:47.445Z,11.93
2023-03-24T07:38:22.313Z,15.04
2023-03-24T07:41:06.251Z,15.05
2023-03-24T07:42:05.119Z,14.95
2023-03-24T07:43:03.015Z,15.31
2023-03-24T07:44:03.044Z,15.49
2023-03-24T07:45:02.906Z,15.77
2023-03-24T07:46:03.801Z,15.66
2023-03-24T07:47:04.254Z,15.86
2023-03-24T07:48:05.783Z,15.92
2023-03-24T07:49:11.783Z,15.86
2023-03-24T07:50:12.430Z,15.98
2023-03-24T07:51:04.772Z,16.27
2023-03-24T07:52:05.282Z,16.65
2023-03-24T07:53:02.564Z,16.63
2023-03-24T07:54:01.734Z,16.48
2023-03-24T07:55:03.764Z,16.66
2023-03-24T07:56:01.627Z,16.82
2023-03-24T07:57:02.519Z,16.73
2023-03-24T07:58:02.456Z,16.81
2023-03-24T07:59:02.564Z,16.81
2023-03-24T08:00:01.497Z,16.95
2023-03-24T08:01:02.549Z,16.50
2023-03-24T08:02:02.232Z,16.04
2023-03-24T08:03:02.453Z,15.70
2023-03-24T08:04:02.389Z,15.51
2023-03-24T08:05:02.187Z,15.15
2023-03-24T08:06:01.289Z,14.64
2023-03-24T08:07:02.291Z,14.35
2023-03-24T08:08:02.169Z,14.09
2023-03-24T08:09:02.163Z,13.83
2023-03-24T08:10:02.063Z,13.75
2023-03-24T08:11:01.094Z,13.55
2023-03-24T08:12:09.960Z,13.50
2023-03-24T08:13:01.014Z,13.48
2023-03-24T08:14:00.986Z,13.48
2023-03-24T08:15:02.819Z,13.55
2023-03-24T08:16:01.922Z,13.53
2023-03-24T08:17:01.760Z,13.50
2023-03-24T08:18:01.762Z,14.12
2023-03-24T08:19:01.445Z,14.45
2023-03-24T08:20:02.570Z,14.30
2023-03-24T08:21:01.409Z,14.08
2023-03-24T08:22:00.698Z,14.23
2023-03-24T08:23:00.648Z,14.36
2023-03-24T08:24:00.630Z,14.48
2023-03-24T08:25:00.586Z,14.64
2023-03-24T08:26:00.540Z,14.87
2023-03-24T08:27:00.523Z,14.95
2023-03-24T08:28:00.476Z,15.01
2023-03-24T08:29:00.431Z,15.12
2023-03-24T08:30:00.408Z,15.23
2023-03-24T08:31:00.384Z,15.30
2023-03-24T08:32:00.329Z,15.44
2023-03-24T08:33:00.347Z,15.68
2023-03-24T08:34:00.256Z,15.91
2023-03-24T08:35:00.214Z,15.59
2023-03-24T08:36:00.222Z,15.40
2023-03-24T08:37:00.248Z,15.12
2023-03-24T08:38:00.131Z,14.91
2023-03-24T08:39:00.119Z,14.67
2023-03-24T08:40:00.042Z,14.48
2023-03-24T08:40:59.997Z,14.23
2023-03-24T08:41:59.962Z,13.98
2023-03-24T08:42:59.930Z,14.06
2023-03-24T08:43:59.905Z,14.19
2023-03-24T08:44:59.870Z,14.16
2023-03-24T08:45:59.849Z,14.21
2023-03-24T08:47:01.333Z,14.21
2023-03-24T08:48:01.829Z,14.05
2023-03-24T08:48:59.885Z,14.31
2023-03-24T08:50:00.281Z,14.75
2023-03-24T08:51:01.111Z,15.12
2023-03-24T08:52:01.792Z,15.18
2023-03-24T08:53:00.880Z,15.20
2023-03-24T08:54:02.426Z,15.22
2023-03-24T08:54:59.611Z,15.40
2023-03-24T08:56:00.613Z,15.34
2023-03-24T08:57:00.530Z,15.80
2023-03-24T08:57:59.433Z,16.52
2023-03-24T08:58:59.430Z,16.67
2023-03-24T08:59:59.417Z,16.32
2023-03-24T09:00:59.784Z,15.85
2023-03-24T09:03:40.286Z,15.67
2023-03-24T09:04:40.612Z,15.78
2023-03-24T09:05:54.031Z,15.67
2023-03-24T09:06:46.292Z,15.55
2023-03-24T09:07:49.859Z,15.44
2023-03-24T09:08:39.393Z,15.52
2023-03-24T09:09:39.468Z,15.77
2023-03-24T09:11:02.509Z,15.84
2023-03-24T09:21:33.067Z,17.71
2023-03-24T09:22:46.914Z,17.15
2023-03-24T09:25:04.591Z,17.14
2023-03-24T09:26:04.918Z,16.90
2023-03-24T09:33:16.503Z,17.02
2023-03-24T09:34:15.520Z,17.07
2023-03-24T09:35:52.036Z,17.33
2023-03-24T09:47:47.361Z,16.18
2023-03-24T09:48:47.503Z,16.51
2023-03-24T09:49:49.481Z,16.32
2023-03-24T09:50:49.965Z,16.06
2023-03-24T09:51:48.504Z,15.95
2023-03-24T09:57:23.245Z,15.33
2023-03-24T09:58:22.917Z,15.49
2023-03-24T10:00:56.315Z,16.36
2023-03-24T10:03:29.518Z,16.08
2023-03-24T10:04:28.457Z,16.17
2023-03-24T10:05:45.652Z,16.59
2023-03-24T10:06:31.951Z,16.42
2023-03-24T10:10:35.690Z,16.51
2023-03-24T10:12:35.967Z,16.33
2023-03-24T10:13:37.480Z,15.98
2023-03-24T10:14:35.480Z,15.89
2023-03-24T10:15:37.736Z,15.77
2023-03-24T10:17:07.395Z,15.84
2023-03-24T10:17:33.944Z,16.29
2023-03-24T10:20:07.808Z,16.04
2023-03-24T10:21:08.314Z,15.81
2023-03-24T10:22:07.774Z,15.44
2023-03-24T10:26:13.771Z,16.84
2023-03-24T10:27:13.453Z,16.80
2023-03-24T10:28:14.433Z,16.55
2023-03-24T10:29:13.747Z,16.78
2023-03-24T10:30:13.746Z,17.17
2023-03-24T10:31:16.758Z,17.12
2023-03-24T10:32:12.772Z,17.55
2023-03-24T10:34:13.848Z,18.23
2023-03-24T10:35:12.819Z,18.38
2023-03-24T10:36:13.774Z,18.10
2023-03-24T10:37:13.321Z,17.62
2023-03-24T10:38:12.784Z,17.32
2023-03-24T10:40:46.693Z,16.62
2023-03-24T10:41:46.372Z,16.27
2023-03-24T10:42:45.742Z,16.26
2023-03-24T10:43:45.873Z,15.98
2023-03-24T10:44:45.232Z,15.62
2023-03-24T10:45:44.958Z,15.62
2023-03-24T10:48:19.271Z,15.64
2023-03-24T10:52:35.856Z,15.68
2023-03-24T10:53:29.874Z,15.53
2023-03-24T10:55:28.917Z,15.64
2023-03-24T10:56:32.417Z,15.49
2023-03-24T10:57:33.364Z,15.44
2023-03-24T10:59:55.745Z,15.05
2023-03-24T11:04:02.911Z,15.12
2023-03-24T11:05:01.843Z,15.11
2023-03-24T11:06:00.902Z,15.09
2023-03-24T11:07:02.563Z,15.05
2023-03-24T11:08:01.336Z,15.07
2023-03-24T11:09:01.396Z,15.19
2023-03-24T11:10:01.125Z,15.77
2023-03-24T11:11:00.828Z,15.60
2023-03-24T11:12:00.753Z,15.84
2023-03-24T11:13:00.474Z,16.36
2023-03-24T11:14:01.253Z,16.60
2023-03-24T11:15:10.430Z,17.00
2023-03-24T11:16:01.957Z,16.99
2023-03-24T11:17:01.023Z,16.92
2023-03-24T11:18:00.937Z,16.84
2023-03-24T11:19:00.871Z,16.82
2023-03-24T11:19:59.969Z,16.92
2023-03-24T11:24:05.924Z,16.69
2023-03-24T11:25:05.114Z,16.90
2023-03-24T11:26:05.420Z,17.35
2023-03-24T11:27:05.398Z,17.65
2023-03-24T11:32:19.997Z,17.94
2023-03-24T11:34:16.996Z,18.07
2023-03-24T11:35:25.038Z,17.91
2023-03-24T11:38:52.391Z,16.66
2023-03-24T11:39:48.394Z,16.87
2023-03-24T11:40:57.853Z,16.82
2023-03-24T11:41:48.866Z,16.69
2023-03-24T11:44:14.787Z,16.78
2023-03-24T11:45:15.427Z,16.69
2023-03-24T11:48:51.317Z,16.17
2023-03-24T11:49:53.361Z,16.10
2023-03-24T11:50:50.897Z,15.99
2023-03-24T11:51:51.322Z,16.07
2023-03-24T11:52:49.103Z,16.13
2023-03-24T11:55:20.567Z,16.06
2023-03-24T11:56:20.120Z,16.06
2023-03-24T11:57:20.292Z,16.03
2023-03-24T11:58:20.207Z,16.16
2023-03-24T11:59:20.237Z,16.13
2023-03-24T12:00:19.999Z,16.16
2023-03-24T12:06:03.633Z,15.88
2023-03-24T12:14:20.772Z,16.54
2023-03-24T12:15:27.467Z,16.42
2023-03-24T12:17:48.325Z,16.14
2023-03-24T12:18:48.808Z,16.23
2023-03-24T12:19:47.962Z,16.18
2023-03-24T12:20:47.175Z,16.18
2023-03-24T12:24:52.435Z,16.37
2023-03-24T12:25:52.897Z,16.65
2023-03-24T12:26:52.549Z,16.57
2023-03-24T12:27:53.088Z,16.78
2023-03-24T12:28:53.100Z,16.65
2023-03-24T12:29:52.019Z,16.65
2023-03-24T12:30:52.062Z,16.87
2023-03-24T12:31:52.153Z,16.88
2023-03-24T12:32:51.226Z,16.81
2023-03-24T12:34:26.906Z,16.55
2023-03-24T12:37:24.902Z,16.08
2023-03-24T12:38:27.278Z,15.99
2023-03-24T12:41:37.784Z,15.80
2023-03-24T12:43:58.106Z,15.86
2023-03-24T12:44:57.163Z,16.07
2023-03-24T12:47:29.807Z,16.59
2023-03-24T12:48:31.184Z,16.63
2023-03-24T12:52:03.520Z,16.70
2023-03-24T13:01:58.078Z,17.14
2023-03-24T13:04:25.046Z,16.80
2023-03-24T13:05:24.184Z,16.70
2023-03-24T13:06:24.282Z,16.47
2023-03-24T13:13:21.576Z,16.41
2023-03-24T13:14:21.726Z,16.41
2023-03-24T13:28:10.129Z,16.16
2023-03-24T13:29:11.747Z,16.06
2023-03-24T13:30:25.290Z,16.04
2023-03-24T13:35:14.840Z,16.37
2023-03-24T13:36:15.729Z,16.55
2023-03-24T13:37:14.082Z,16.63
2023-03-24T13:39:13.474Z,16.54
2023-03-24T13:42:46.539Z,16.77
2023-03-24T13:43:46.557Z,16.70
2023-03-24T13:46:19.513Z,16.48
2023-03-24T13:47:19.985Z,16.36
2023-03-24T13:48:26.471Z,16.26
2023-03-24T13:49:18.004Z,16.22
2023-03-24T13:50:26.477Z,16.13
2023-03-24T13:51:24.004Z,16.17
2023-03-24T13:52:20.975Z,16.17
2023-03-24T13:54:21.511Z,16.22
2023-03-24T13:55:29.068Z,16.25
2023-03-24T13:56:17.718Z,16.25
2023-03-24T13:58:17.278Z,16.03
2023-03-24T13:59:34.414Z,16.06
2023-03-24T14:00:17.797Z,15.85
2023-03-24T14:01:17.677Z,15.80
2023-03-24T14:02:17.065Z,15.78
2023-03-24T14:03:20.702Z,15.71
2023-03-24T14:04:16.236Z,15.62
2023-03-24T14:05:18.106Z,15.51
2023-03-24T14:06:16.222Z,15.55
2023-03-24T14:07:16.195Z,15.55
2023-03-24T14:08:22.024Z,15.27
2023-03-24T14:09:15.341Z,15.13
2023-03-24T14:10:15.249Z,14.72
2023-03-24T14:11:15.482Z,14.44
2023-03-24T14:12:14.956Z,14.39
2023-03-24T14:13:14.991Z,14.17
2023-03-24T14:14:14.932Z,14.21
2023-03-24T14:15:14.892Z,14.26
2023-03-24T14:16:14.948Z,14.26
2023-03-24T14:17:14.834Z,14.27
2023-03-24T14:18:14.738Z,14.23
2023-03-24T14:19:17.524Z,14.35
2023-03-24T14:20:16.987Z,14.29
2023-03-24T14:21:15.613Z,14.29
2023-03-24T14:22:16.110Z,14.34
2023-03-24T14:28:25.670Z,14.52
2023-03-24T14:38:06.257Z,14.75
2023-03-24T14:39:05.253Z,14.78
2023-03-24T14:40:08.026Z,14.72
2023-03-24T15:10:21.535Z,13.72
2023-03-24T15:12:05.047Z,13.75
2023-03-24T15:12:21.380Z,13.86
2023-03-24T15:13:47.049Z,13.90
2023-03-24T15:14:20.128Z,13.93
2023-03-24T15:16:38.768Z,13.86
2023-03-24T15:17:31.128Z,14.04
2023-03-24T15:25:27.359Z,13.90
2023-03-24T15:26:29.196Z,13.91
2023-03-24T15:27:28.291Z,13.90
2023-03-24T15:28:26.862Z,13.98
2023-03-24T15:29:28.881Z,13.90
2023-03-24T15:30:26.140Z,13.84
2023-03-24T15:33:42.994Z,13.86
2023-03-24T15:34:45.372Z,13.83
2023-03-24T15:35:42.848Z,13.91
2023-03-24T15:36:42.937Z,13.93
2023-03-24T15:37:42.432Z,13.75
2023-03-24T15:38:41.786Z,13.91
2023-03-24T15:39:41.734Z,13.88
2023-03-24T15:40:45.435Z,13.86
2023-03-24T15:43:15.538Z,13.72
2023-03-24T15:44:15.128Z,13.86
2023-03-24T15:45:15.244Z,13.87
2023-03-24T15:46:15.239Z,13.99
2023-03-24T15:47:15.103Z,13.99
2023-03-24T15:48:14.685Z,14.02
2023-03-24T15:49:14.199Z,14.04
2023-03-24T15:50:14.145Z,13.98
2023-03-24T15:51:14.073Z,13.79
2023-03-24T15:52:13.995Z,13.51
2023-03-24T15:53:14.012Z,13.32
2023-03-24T15:54:13.999Z,13.01
2023-03-24T15:55:14.898Z,12.76
2023-03-24T15:56:16.701Z,12.56
2023-03-24T15:57:18.222Z,12.40
2023-03-24T15:58:13.978Z,12.44
2023-03-24T15:59:16.730Z,12.31
2023-03-24T16:00:14.564Z,12.12
2023-03-24T16:01:15.212Z,11.97
2023-03-24T16:02:15.223Z,11.69
2023-03-24T16:03:13.963Z,11.56
2023-03-24T16:04:13.644Z,11.54
2023-03-24T16:05:13.506Z,11.45
2023-03-24T16:06:13.509Z,11.28
2023-03-24T16:07:13.434Z,11.27
2023-03-24T16:08:14.510Z,11.28
2023-03-24T16:09:14.205Z,11.23
2023-03-24T16:10:13.334Z,11.30
2023-03-24T16:11:13.262Z,11.24
2023-03-24T16:35:48.527Z,11.48
2023-03-24T16:36:48.651Z,11.38
2023-03-24T16:37:48.003Z,11.46
2023-03-24T16:47:12.184Z,11.17
2023-03-24T16:48:14.235Z,11.26
2023-03-24T16:49:17.047Z,11.21
2023-03-24T16:59:00.245Z,11.38
2023-03-24T17:05:38.046Z,11.60
2023-03-24T17:06:37.510Z,11.62
2023-03-24T17:07:38.970Z,11.54
2023-03-24T17:08:36.957Z,11.62
2023-03-24T17:09:39.656Z,11.60
2023-03-24T17:10:38.422Z,11.63
2023-03-24T17:17:56.296Z,11.60
2023-03-24T17:18:56.185Z,11.63
2023-03-24T17:19:58.109Z,11.53
2023-03-24T17:37:05.697Z,11.01
2023-03-24T17:38:05.630Z,11.01
2023-03-24T17:39:06.135Z,10.94
2023-03-24T17:40:05.880Z,11.02
2023-03-24T17:41:05.558Z,10.88
2023-03-24T17:42:05.302Z,10.80
2023-03-24T17:43:05.395Z,10.81